Time;durP1;ratioP1;P1;durP2;ratioP2;P2;SDS_P1;SDS_P2;PMS_P1;PMS_P2;Temp;Humidity;BMP_temperature;BMP_pressure;BME280_temperature;BME280_humidity;BME280_pressure;Samples;Min_cycle;Max_cycle;Signal;HPM_P1;HPM_P2
2023/09/13 00:01:59;;;;;;;26.93;22.60;;;21.10;64.10;;;;;;5013482;28;20201;-83
2023/09/13 00:04:24;;;;;;;28.33;24.73;;;21.00;66.90;;;;;;5011290;28;20178;-84
2023/09/13 00:06:50;;;;;;;30.13;24.17;;;20.90;70.00;;;;;;5012271;28;20174;-81
2023/09/13 00:09:16;;;;;;;27.23;24.30;;;20.90;75.80;;;;;;5013748;28;20175;-80
2023/09/13 00:11:42;;;;;;;27.23;23.50;;;20.80;79.20;;;;;;5011842;28;20170;-81
2023/09/13 00:14:08;;;;;;;31.03;25.83;;;20.80;83.70;;;;;;5014448;28;20206;-79
2023/09/13 00:16:34;;;;;;;28.50;24.87;;;20.70;82.10;;;;;;5017595;28;20170;-80
2023/09/13 00:19:03;;;;;;;31.23;26.20;;;20.70;80.60;;;;;;5014541;28;20172;-81
2023/09/13 00:21:29;;;;;;;32.67;25.93;;;20.70;83.00;;;;;;5011387;28;20241;-80
2023/09/13 00:23:55;;;;;;;29.33;24.33;;;20.60;87.00;;;;;;5012004;28;20576;-80
2023/09/13 00:26:20;;;;;;;29.30;25.30;;;20.50;94.20;;;;;;5014002;28;20178;-82
2023/09/13 00:28:48;;;;;;;33.43;26.87;;;20.50;93.60;;;;;;5012388;28;20546;-80
2023/09/13 00:31:13;;;;;;;32.50;26.47;;;20.30;95.70;;;;;;5011710;28;20301;-81
2023/09/13 00:33:39;;;;;;;37.40;27.07;;;20.40;94.90;;;;;;5014585;28;20240;-80
2023/09/13 00:36:05;;;;;;;36.87;28.43;;;20.40;94.40;;;;;;5016270;28;20187;-85
2023/09/13 00:38:30;;;;;;;36.37;28.57;;;20.30;93.50;;;;;;5017151;28;20170;-85
2023/09/13 00:40:56;;;;;;;38.53;30.77;;;20.40;94.50;;;;;;5013632;28;20281;-84
2023/09/13 00:43:22;;;;;;;35.73;28.83;;;20.40;93.10;;;;;;5016741;28;20657;-84
2023/09/13 00:45:50;;;;;;;38.23;30.23;;;20.30;96.60;;;;;;5017989;28;20176;-85
2023/09/13 00:48:17;;;;;;;35.27;28.97;;;20.30;96.20;;;;;;5017807;28;20196;-81
2023/09/13 00:50:45;;;;;;;41.00;31.97;;;20.40;94.70;;;;;;5018078;28;20212;-84
2023/09/13 00:53:11;;;;;;;44.70;32.50;;;20.40;92.90;;;;;;5017371;28;20581;-81
2023/09/13 00:55:39;;;;;;;42.20;33.03;;;20.30;92.70;;;;;;5017335;28;20207;-81
2023/09/13 00:58:05;;;;;;;41.17;31.33;;;20.30;93.70;;;;;;5018059;28;20185;-84
2023/09/13 01:00:32;;;;;;;39.87;32.17;;;20.10;95.60;;;;;;5002854;28;20201;-82
2023/09/13 01:02:59;;;;;;;41.80;31.97;;;20.10;97.00;;;;;;4996943;28;20166;-80
2023/09/13 01:05:26;;;;;;;40.17;32.27;;;20.00;98.40;;;;;;4997364;28;20241;-81
2023/09/13 01:07:51;;;;;;;39.23;30.53;;;20.00;99.90;;;;;;4996228;28;20173;-82
2023/09/13 01:10:19;;;;;;;39.70;32.37;;;20.00;99.90;;;;;;4998291;28;20228;-81
2023/09/13 01:12:45;;;;;;;37.33;28.57;;;20.10;99.90;;;;;;5017876;28;20174;-80
2023/09/13 01:15:12;;;;;;;39.83;31.17;;;20.10;99.90;;;;;;5022091;28;20205;-81
2023/09/13 01:17:44;;;;;;;37.97;29.47;;;20.10;99.40;;;;;;5026944;28;20172;-79
2023/09/13 01:20:44;;;;;;;38.70;31.17;;;20.10;99.70;;;;;;5025118;28;20178;-80
2023/09/13 01:23:23;;;;;;;36.83;29.30;;;20.00;99.90;;;;;;5015314;28;20204;-80
2023/09/13 01:26:27;;;;;;;41.30;29.27;;;20.20;98.40;;;;;;5000745;28;20241;-80
2023/09/13 01:28:54;;;;;;;37.63;31.30;;;20.20;94.60;;;;;;4995515;28;20672;-81
2023/09/13 01:31:21;;;;;;;38.90;31.23;;;20.20;88.10;;;;;;4996930;28;20197;-81
2023/09/13 01:33:48;;;;;;;41.13;30.47;;;19.90;87.60;;;;;;4996893;28;20226;-82
2023/09/13 01:36:14;;;;;;;43.67;32.70;;;19.80;94.40;;;;;;4996168;28;20642;-84
2023/09/13 01:38:41;;;;;;;42.90;31.90;;;19.70;93.90;;;;;;4997685;28;20214;-80
2023/09/13 01:41:27;;;;;;;43.00;32.43;;;19.50;96.20;;;;;;4997662;28;20173;-81
2023/09/13 01:43:55;;;;;;;42.07;31.63;;;19.30;98.50;;;;;;4997123;28;20243;-81
2023/09/13 01:46:30;;;;;;;41.53;32.53;;;19.30;99.90;;;;;;4997079;28;20572;-80
2023/09/13 01:48:57;;;;;;;40.27;30.93;;;19.40;99.90;;;;;;4993682;28;20210;-79
2023/09/13 01:51:27;;;;;;;44.03;31.77;;;19.30;99.90;;;;;;4995313;28;20212;-84
2023/09/13 01:53:56;;;;;;;38.77;30.77;;;19.20;99.90;;;;;;4996981;28;20167;-81
2023/09/13 01:56:22;;;;;;;38.93;30.67;;;19.20;99.90;;;;;;4996189;28;20197;-82
2023/09/13 01:58:49;;;;;;;42.27;31.67;;;19.40;99.90;;;;;;4996976;28;20182;-81
2023/09/13 02:01:15;;;;;;;40.63;31.87;;;19.20;98.80;;;;;;4996456;28;20184;-83
2023/09/13 02:03:41;;;;;;;42.83;33.63;;;19.20;99.90;;;;;;4994900;28;20182;-81
2023/09/13 02:06:07;;;;;;;43.30;32.07;;;19.30;99.70;;;;;;4996615;28;20168;-81
2023/09/13 02:08:33;;;;;;;42.20;32.03;;;19.20;99.00;;;;;;4994656;28;20169;-81
2023/09/13 02:10:58;;;;;;;41.30;30.53;;;19.30;99.10;;;;;;4997037;28;20196;-85
2023/09/13 02:13:25;;;;;;;41.57;31.73;;;19.20;99.50;;;;;;4995249;28;20182;-84
2023/09/13 02:15:51;;;;;;;47.73;32.77;;;19.30;99.90;;;;;;5012529;28;20228;-85
2023/09/13 02:18:17;;;;;;;38.53;30.23;;;19.20;99.90;;;;;;4996777;28;20632;-84
2023/09/13 02:20:42;;;;;;;41.10;29.63;;;19.30;99.90;;;;;;4995430;28;20167;-85
2023/09/13 02:23:08;;;;;;;36.77;28.83;;;19.20;99.70;;;;;;5006054;28;20642;-85
2023/09/13 02:25:38;;;;;;;39.13;29.17;;;19.20;99.50;;;;;;5014859;28;20671;-85
2023/09/13 02:28:04;;;;;;;39.73;27.70;;;19.30;99.70;;;;;;5015621;28;20178;-84
2023/09/13 02:30:33;;;;;;;41.43;28.77;;;19.40;99.90;;;;;;5017032;28;20206;-85
2023/09/13 02:32:59;;;;;;;40.10;29.60;;;19.20;97.70;;;;;;5015962;28;20290;-82
2023/09/13 02:35:24;;;;;;;40.83;29.07;;;19.20;99.10;;;;;;5016949;28;20220;-84
2023/09/13 02:37:50;;;;;;;42.33;29.50;;;19.20;99.90;;;;;;5007225;28;20175;-83
2023/09/13 02:40:17;;;;;;;35.60;26.77;;;19.20;99.90;;;;;;4996804;28;20516;-84
2023/09/13 02:42:43;;;;;;;37.03;27.60;;;19.30;99.90;;;;;;5004062;28;20180;-82
2023/09/13 02:45:09;;;;;;;36.90;26.80;;;19.30;98.40;;;;;;5032237;28;20235;-81
2023/09/13 02:47:35;;;;;;;38.57;28.80;;;19.40;98.10;;;;;;5035977;28;20225;-84
2023/09/13 02:50:01;;;;;;;39.00;28.80;;;19.20;96.90;;;;;;5025561;28;20686;-85
2023/09/13 02:52:30;;;;;;;36.97;28.50;;;19.20;97.80;;;;;;5006981;28;20554;-81
2023/09/13 02:54:59;;;;;;;39.83;28.80;;;19.30;98.30;;;;;;4996788;28;20205;-84
2023/09/13 02:57:33;;;;;;;41.30;29.20;;;19.20;96.40;;;;;;4997331;28;20165;-84
2023/09/13 03:00:00;;;;;;;38.33;27.93;;;19.20;96.90;;;;;;4995555;28;20170;-84
2023/09/13 03:02:25;;;;;;;38.03;27.40;;;19.20;98.60;;;;;;4994987;28;20205;-83
2023/09/13 03:04:53;;;;;;;39.03;30.13;;;19.10;99.90;;;;;;4995990;28;20178;-86
2023/09/13 03:07:19;;;;;;;39.93;30.87;;;19.00;99.90;;;;;;5020685;28;20187;-83
2023/09/13 03:09:46;;;;;;;40.40;29.83;;;18.80;99.90;;;;;;5036228;28;20202;-83
2023/09/13 03:12:13;;;;;;;40.93;30.37;;;18.80;99.90;;;;;;5015060;28;20180;-83
2023/09/13 03:14:39;;;;;;;41.37;30.33;;;18.90;99.90;;;;;;5008711;28;20185;-82
2023/09/13 03:17:16;;;;;;;44.53;31.67;;;18.90;99.90;;;;;;5021153;28;20178;-85
2023/09/13 03:19:48;;;;;;;45.50;32.00;;;19.00;99.90;;;;;;5014803;28;20175;-83
2023/09/13 03:22:15;;;;;;;46.00;30.40;;;18.90;99.90;;;;;;5014597;28;20173;-83
2023/09/13 03:24:41;;;;;;;47.17;31.67;;;19.10;99.90;;;;;;5016208;28;20159;-84
2023/09/13 03:27:08;;;;;;;43.63;30.90;;;19.10;99.90;;;;;;5003669;28;20177;-85
2023/09/13 03:29:33;;;;;;;45.60;32.07;;;19.20;99.90;;;;;;4994019;28;20660;-84
2023/09/13 03:31:59;;;;;;;45.17;31.03;;;19.10;99.90;;;;;;4995718;28;20202;-84
2023/09/13 03:34:25;;;;;;;44.47;31.47;;;19.20;99.90;;;;;;4995803;28;20613;-81
2023/09/13 03:36:50;;;;;;;40.87;29.07;;;19.30;99.90;;;;;;5002259;28;20213;-83
2023/09/13 03:39:16;;;;;;;43.00;29.20;;;19.30;99.90;;;;;;5015045;28;20561;-85
2023/09/13 03:41:42;;;;;;;42.40;30.00;;;19.30;99.90;;;;;;5005903;28;20179;-85
2023/09/13 03:44:07;;;;;;;40.10;28.87;;;19.30;99.90;;;;;;4995014;28;20697;-86
2023/09/13 03:46:34;;;;;;;42.17;29.67;;;19.20;99.90;;;;;;4995465;28;20175;-84
2023/09/13 03:49:00;;;;;;;42.30;28.83;;;19.20;99.80;;;;;;4994753;28;20248;-84
2023/09/13 03:51:25;;;;;;;40.30;29.47;;;19.20;99.90;;;;;;4995070;28;20562;-85
2023/09/13 03:53:51;;;;;;;40.80;28.60;;;19.40;99.90;;;;;;5011188;28;20251;-85
2023/09/13 03:56:17;;;;;;;37.90;28.70;;;19.30;98.60;;;;;;5014629;28;20193;-84
2023/09/13 03:58:43;;;;;;;37.83;28.77;;;19.30;98.60;;;;;;5012525;28;20180;-84
2023/09/13 04:01:09;;;;;;;38.03;30.23;;;19.40;97.70;;;;;;5013967;28;20193;-85
2023/09/13 04:03:36;;;;;;;38.93;27.97;;;19.40;94.60;;;;;;5009611;28;20220;-82
2023/09/13 04:06:02;;;;;;;41.33;28.53;;;19.50;93.50;;;;;;4993832;28;20184;-85
2023/09/13 04:08:28;;;;;;;37.90;28.97;;;19.50;95.40;;;;;;4994747;28;20180;-85
2023/09/13 04:10:55;;;;;;;37.07;28.13;;;19.50;93.50;;;;;;4995867;28;20271;-86
2023/09/13 04:13:20;;;;;;;35.97;27.67;;;19.50;94.40;;;;;;4995195;28;20193;-85
2023/09/13 04:15:46;;;;;;;39.03;28.53;;;19.60;94.40;;;;;;4995559;28;20240;-85
2023/09/13 04:18:13;;;;;;;40.63;28.63;;;19.70;89.70;;;;;;5015648;28;20175;-81
2023/09/13 04:20:39;;;;;;;36.13;27.03;;;19.70;84.10;;;;;;5015904;28;20196;-81
2023/09/13 04:23:04;;;;;;;39.50;29.90;;;19.80;85.80;;;;;;5016693;28;20636;-84
2023/09/13 04:25:30;;;;;;;37.83;29.70;;;19.80;78.10;;;;;;5012915;28;20204;-83
2023/09/13 04:27:56;;;;;;;40.13;29.57;;;19.80;78.00;;;;;;5018785;28;20182;-82
2023/09/13 04:30:23;;;;;;;41.63;31.10;;;19.60;79.50;;;;;;5030507;28;20205;-82
2023/09/13 04:32:48;;;;;;;36.67;29.27;;;19.60;87.90;;;;;;5031795;28;20175;-82
2023/09/13 04:35:15;;;;;;;39.43;30.20;;;19.50;91.30;;;;;;5004856;28;20646;-86
2023/09/13 04:37:42;;;;;;;35.80;28.43;;;19.50;91.80;;;;;;5010134;28;20274;-82
2023/09/13 04:40:09;;;;;;;39.13;30.53;;;19.50;95.60;;;;;;5014791;28;20181;-85
2023/09/13 04:42:50;;;;;;;39.50;30.20;;;19.50;94.30;;;;;;5013923;28;20173;-85
2023/09/13 04:45:18;;;;;;;40.47;31.50;;;19.50;94.70;;;;;;5014343;28;20178;-84
2023/09/13 04:47:43;;;;;;;35.60;30.03;;;19.40;94.50;;;;;;5013102;28;20182;-84
2023/09/13 04:50:09;;;;;;;37.73;30.43;;;19.40;95.40;;;;;;5013516;28;20217;-88
2023/09/13 04:52:35;;;;;;;40.37;30.90;;;19.40;97.20;;;;;;5012858;28;20537;-88
2023/09/13 04:55:01;;;;;;;40.23;30.97;;;19.40;97.40;;;;;;5008259;28;20218;-87
2023/09/13 04:57:26;;;;;;;38.40;30.73;;;19.40;98.00;;;;;;4992357;28;20175;-87
2023/09/13 04:59:53;;;;;;;39.17;31.40;;;19.30;96.90;;;;;;4992905;28;20278;-87
2023/09/13 05:02:40;;;;;;;38.17;30.80;;;19.30;98.30;;;;;;4997928;28;20212;-88
2023/09/13 05:05:09;;;;;;;38.87;32.33;;;19.20;99.90;;;;;;5014720;28;20223;-89
2023/09/13 05:07:35;;;;;;;39.77;30.83;;;19.30;99.90;;;;;;5000484;28;20739;-88
2023/09/13 05:10:02;;;;;;;42.47;30.83;;;19.30;99.90;;;;;;4998651;28;20209;-88
2023/09/13 05:12:29;;;;;;;42.10;32.67;;;19.30;99.90;;;;;;4997330;28;20181;-87
2023/09/13 05:14:58;;;;;;;40.93;30.90;;;19.40;99.00;;;;;;4993348;28;20179;-89
2023/09/13 05:17:29;;;;;;;38.97;30.97;;;19.50;98.90;;;;;;4994822;28;20181;-89
2023/09/13 05:19:55;;;;;;;42.63;33.27;;;19.50;96.50;;;;;;4994122;28;20165;-88
2023/09/13 05:29:40;;;;;;;42.03;32.30;;;19.50;97.60;;;;;;4975094;28;20219;-86
2023/09/13 05:38:12;;;;;;;43.33;32.90;;;19.50;99.30;;;;;;5037684;28;20181;-83
2023/09/13 05:41:07;;;;;;;41.60;33.10;;;19.60;96.40;;;;;;5030981;28;20200;-85
2023/09/13 05:44:21;;;;;;;43.33;32.97;;;19.60;97.50;;;;;;5033182;28;20211;-84
2023/09/13 05:46:48;;;;;;;43.93;33.43;;;19.60;97.80;;;;;;5029026;28;20178;-83
2023/09/13 05:49:40;;;;;;;43.40;35.50;;;19.40;97.10;;;;;;5031334;28;20168;-83
2023/09/13 05:53:01;;;;;;;48.87;36.20;;;19.50;99.90;;;;;;5022570;28;20196;-83
2023/09/13 05:55:50;;;;;;;46.50;36.17;;;19.60;97.90;;;;;;5024054;28;20233;-83
2023/09/13 05:58:27;;;;;;;45.87;36.03;;;19.60;97.80;;;;;;5014322;28;20203;-84
2023/09/13 06:01:32;;;;;;;52.90;38.07;;;19.70;96.30;;;;;;5026878;28;20218;-84
2023/09/13 06:04:21;;;;;;;48.27;35.70;;;19.70;96.00;;;;;;5000205;28;20191;-85
2023/09/13 06:06:47;;;;;;;55.47;37.47;;;19.60;95.50;;;;;;4994904;28;20181;-88
2023/09/13 06:09:15;;;;;;;46.53;35.67;;;19.70;96.80;;;;;;4998559;28;20174;-84
2023/09/13 06:11:48;;;;;;;44.83;35.03;;;19.60;97.20;;;;;;5003265;28;20223;-87
2023/09/13 06:14:18;;;;;;;43.50;33.60;;;19.80;94.80;;;;;;5001105;28;20180;-84
2023/09/13 06:16:46;;;;;;;47.93;36.53;;;19.80;92.00;;;;;;5015621;28;20254;-85
2023/09/13 06:19:17;;;;;;;42.87;33.33;;;19.90;91.10;;;;;;5023941;28;20265;-85
2023/09/13 06:21:43;;;;;;;41.20;33.13;;;19.70;92.60;;;;;;5033212;28;20180;-84
2023/09/13 06:24:09;;;;;;;41.17;33.10;;;19.80;91.90;;;;;;5030558;28;20169;-83
2023/09/13 06:26:35;;;;;;;39.07;32.03;;;19.80;92.40;;;;;;5032297;28;20173;-90
2023/09/13 06:29:02;;;;;;;39.43;31.63;;;19.80;92.40;;;;;;5030787;28;20209;-88
2023/09/13 06:31:31;;;;;;;49.07;32.60;;;19.90;87.20;;;;;;5018989;28;20202;-88
2023/09/13 06:34:03;;;;;;;38.77;31.53;;;20.10;76.60;;;;;;5030540;28;20188;-81
2023/09/13 06:36:31;;;;;;;42.37;33.10;;;20.00;76.20;;;;;;5036908;28;20177;-85
2023/09/13 06:38:57;;;;;;;38.10;31.40;;;19.90;78.70;;;;;;5025311;28;20177;-85
2023/09/13 06:41:28;;;;;;;41.53;31.20;;;19.80;88.30;;;;;;5032502;28;20195;-82
2023/09/13 06:44:08;;;;;;;37.10;29.77;;;19.80;90.60;;;;;;5031286;28;20177;-81
2023/09/13 06:46:54;;;;;;;35.93;29.80;;;19.80;91.70;;;;;;5029717;28;20168;-82
2023/09/13 06:49:20;;;;;;;35.93;30.03;;;19.70;90.50;;;;;;5028987;28;20167;-83
2023/09/13 06:51:46;;;;;;;38.43;29.37;;;19.60;93.60;;;;;;5034778;28;20192;-86
2023/09/13 06:54:12;;;;;;;37.77;29.60;;;19.50;98.00;;;;;;5035835;28;20505;-85
2023/09/13 06:56:42;;;;;;;31.37;26.27;;;19.50;99.40;;;;;;5027837;28;20202;-88
2023/09/13 06:59:10;;;;;;;29.23;22.83;;;19.50;99.90;;;;;;5032790;28;20183;-88
2023/09/13 07:01:36;;;;;;;26.10;20.43;;;19.40;99.40;;;;;;5029230;28;20230;-88
2023/09/13 07:04:03;;;;;;;24.63;20.90;;;19.30;99.90;;;;;;5028148;28;20155;-86
2023/09/13 07:06:29;;;;;;;22.53;18.10;;;19.30;99.90;;;;;;5030486;28;20180;-86
2023/09/13 07:08:55;;;;;;;24.80;18.07;;;19.30;99.90;;;;;;5026915;28;20191;-88
2023/09/13 07:11:23;;;;;;;20.93;17.90;;;19.30;98.30;;;;;;5015330;28;20244;-88
2023/09/13 07:13:49;;;;;;;19.37;17.30;;;19.30;98.60;;;;;;5014934;28;20651;-83
2023/09/13 07:16:24;;;;;;;22.43;17.47;;;19.40;99.40;;;;;;5015554;28;20176;-91
2023/09/13 07:18:50;;;;;;;23.70;16.63;;;19.50;93.90;;;;;;5017243;28;20222;-90
2023/09/13 07:21:17;;;;;;;21.67;16.43;;;19.50;92.40;;;;;;5015321;28;20178;-88
2023/09/13 07:23:43;;;;;;;19.50;15.33;;;19.60;90.10;;;;;;5009251;28;20561;-87
2023/09/13 07:26:09;;;;;;;19.20;14.53;;;19.70;88.40;;;;;;5006116;28;20213;-87
2023/09/13 07:28:34;;;;;;;19.70;15.03;;;19.80;86.00;;;;;;4995702;28;20204;-84
2023/09/13 07:31:10;;;;;;;17.30;14.03;;;19.90;75.40;;;;;;5011281;28;20209;-82
2023/09/13 07:33:36;;;;;;;15.37;13.00;;;20.00;70.10;;;;;;5014877;28;20161;-85
2023/09/13 07:36:05;;;;;;;18.63;13.37;;;20.00;63.20;;;;;;5032206;28;20177;-87
2023/09/13 07:38:32;;;;;;;18.37;13.07;;;20.10;58.70;;;;;;5021971;28;20187;-85
2023/09/13 07:40:58;;;;;;;16.77;12.93;;;20.00;52.50;;;;;;5025235;28;20171;-86
2023/09/13 07:43:24;;;;;;;19.00;13.50;;;19.90;57.60;;;;;;5034001;28;20207;-85
2023/09/13 07:45:51;;;;;;;17.53;11.90;;;19.70;68.50;;;;;;5030562;28;20185;-88
2023/09/13 07:48:20;;;;;;;15.30;11.97;;;19.70;71.10;;;;;;5029741;28;20196;-90
2023/09/13 07:50:46;;;;;;;16.27;11.47;;;19.80;71.00;;;;;;5034187;28;20213;-91
2023/09/13 07:53:12;;;;;;;17.37;12.23;;;20.00;67.70;;;;;;5027638;28;20178;-90
2023/09/13 07:55:38;;;;;;;16.90;11.23;;;20.00;58.80;;;;;;5033399;28;20207;-88
2023/09/13 07:58:07;;;;;;;14.30;10.70;;;20.00;59.50;;;;;;5020980;28;20178;-85
2023/09/13 08:00:33;;;;;;;13.90;10.30;;;20.00;59.30;;;;;;5028668;28;20201;-83
2023/09/13 08:03:00;;;;;;;13.93;10.20;;;20.10;60.10;;;;;;5034111;28;20193;-86
2023/09/13 08:05:27;;;;;;;15.30;9.33;;;20.30;55.80;;;;;;5006859;28;20219;-86
2023/09/13 08:08:10;;;;;;;;;;;;;;;;;;;;;
2023/09/13 08:10:36;;;;;;;14.63;8.30;;;20.30;49.60;;;;;;5016033;28;20256;-83
2023/09/13 08:13:02;;;;;;;18.27;8.20;;;20.20;49.90;;;;;;5027581;28;20182;-87
2023/09/13 08:15:28;;;;;;;13.37;7.77;;;20.20;51.50;;;;;;5019546;28;20208;-87
2023/09/13 08:17:54;;;;;;;11.43;7.03;;;20.30;46.30;;;;;;5015650;28;20192;-87
2023/09/13 08:20:20;;;;;;;16.47;7.93;;;20.40;46.50;;;;;;5023119;28;20184;-84
2023/09/13 08:22:54;;;;;;;12.40;6.77;;;20.30;39.10;;;;;;5031781;28;20209;-85
2023/09/13 08:25:20;;;;;;;13.30;6.73;;;20.40;37.70;;;;;;5018188;28;20189;-86
2023/09/13 08:27:46;;;;;;;16.47;6.77;;;20.40;39.20;;;;;;5031393;28;20181;-83
2023/09/13 08:30:12;;;;;;;17.70;7.57;;;20.40;36.10;;;;;;5027058;28;20210;-87
2023/09/13 08:32:43;;;;;;;15.27;8.93;;;20.20;37.20;;;;;;5030083;28;20185;-85
2023/09/13 08:35:09;;;;;;;20.53;9.10;;;20.30;34.90;;;;;;5031888;28;20165;-85
2023/09/13 08:37:44;;;;;;;17.13;11.50;;;20.40;34.80;;;;;;5013266;28;20167;-87
2023/09/13 08:40:11;;;;;;;16.33;9.87;;;20.30;32.00;;;;;;5020242;28;20158;-85
2023/09/13 08:42:40;;;;;;;16.80;8.37;;;20.40;31.50;;;;;;5032297;28;20177;-89
2023/09/13 08:45:06;;;;;;;18.50;9.47;;;20.40;29.90;;;;;;5027109;28;20188;-85
2023/09/13 08:47:36;;;;;;;19.50;9.03;;;20.60;30.90;;;;;;5017588;28;20172;-80
2023/09/13 08:50:04;;;;;;;17.83;10.00;;;20.70;28.50;;;;;;5016282;28;20206;-81
2023/09/13 08:52:31;;;;;;;22.10;11.23;;;20.60;22.80;;;;;;5012507;28;20174;-83
2023/09/13 08:54:58;;;;;;;16.77;10.93;;;20.50;22.90;;;;;;5015228;28;20195;-83
2023/09/13 08:57:33;;;;;;;13.57;9.90;;;20.50;28.60;;;;;;5024471;28;20178;-85
2023/09/13 09:00:07;;;;;;;16.70;10.80;;;20.70;27.80;;;;;;5027001;28;20173;-85
2023/09/13 09:02:34;;;;;;;15.97;9.53;;;20.60;28.10;;;;;;5036690;28;20175;-84
2023/09/13 09:05:16;;;;;;;13.37;9.10;;;20.80;27.30;;;;;;5040346;28;20187;-87
2023/09/13 09:07:45;;;;;;;16.87;8.80;;;21.00;20.70;;;;;;5031182;28;20191;-87
2023/09/13 09:10:30;;;;;;;14.03;9.00;;;21.20;4.10;;;;;;5013039;28;20574;-87
2023/09/13 09:12:58;;;;;;;13.87;8.17;;;21.10;1.00;;;;;;5006733;28;20243;-87
2023/09/13 09:15:25;;;;;;;11.67;7.23;;;21.10;1.70;;;;;;5001415;28;20175;-88
2023/09/13 09:18:03;;;;;;;15.00;7.20;;;21.10;1.00;;;;;;4998326;28;20198;-88
2023/09/13 09:20:29;;;;;;;12.40;7.83;;;21.20;1.00;;;;;;5009692;28;20228;-84
2023/09/13 09:22:58;;;;;;;13.70;8.10;;;21.20;1.00;;;;;;5018984;28;20183;-86
2023/09/13 09:25:25;;;;;;;13.87;7.03;;;21.10;1.00;;;;;;5018881;28;20183;-86
2023/09/13 09:27:52;;;;;;;11.20;6.83;;;21.00;2.70;;;;;;5018376;28;20179;-84
2023/09/13 09:30:31;;;;;;;13.33;6.30;;;20.80;13.40;;;;;;5017469;28;20226;-83
2023/09/13 09:33:05;;;;;;;13.50;5.73;;;20.70;17.80;;;;;;5020343;28;20171;-84
2023/09/13 09:35:31;;;;;;;11.77;5.80;;;20.60;21.20;;;;;;5026466;28;20176;-87
2023/09/13 09:38:00;;;;;;;16.43;6.10;;;20.60;20.50;;;;;;5021900;28;20188;-86
2023/09/13 09:40:38;;;;;;;9.97;4.83;;;20.80;16.40;;;;;;5021458;28;20199;-85
2023/09/13 09:43:04;;;;;;;14.67;5.07;;;20.90;12.30;;;;;;5019279;28;20254;-83
2023/09/13 09:45:30;;;;;;;7.97;3.50;;;21.00;1.00;;;;;;5020331;28;20192;-86
2023/09/13 09:47:56;;;;;;;10.67;3.93;;;21.20;1.00;;;;;;5019203;28;20178;-86
2023/09/13 09:50:31;;;;;;;11.53;3.97;;;21.30;1.00;;;;;;5028072;28;20182;-86
2023/09/13 09:53:00;;;;;;;10.20;3.77;;;21.30;1.00;;;;;;5038237;28;20177;-86
2023/09/13 09:55:26;;;;;;;12.80;4.30;;;21.00;1.00;;;;;;5031979;28;20199;-85
2023/09/13 09:57:53;;;;;;;9.53;3.60;;;20.90;1.00;;;;;;5036197;28;20192;-85
2023/09/13 10:00:19;;;;;;;9.43;3.90;;;20.80;1.00;;;;;;5016139;28;20210;-86
2023/09/13 10:02:55;;;;;;;12.17;4.40;;;20.50;6.30;;;;;;5014141;28;20183;-86
2023/09/13 10:05:29;;;;;;;10.00;4.27;;;20.30;13.20;;;;;;5014672;28;20171;-82
2023/09/13 10:07:55;;;;;;;10.40;5.67;;;20.20;16.10;;;;;;5015677;28;20171;-82
2023/09/13 10:10:35;;;;;;;18.03;7.93;;;20.00;18.90;;;;;;5033819;28;20294;-82
2023/09/13 10:13:01;;;;;;;11.20;8.17;;;20.00;20.60;;;;;;5015278;28;20163;-85
2023/09/13 10:15:27;;;;;;;11.87;10.50;;;20.00;23.50;;;;;;5016528;28;20182;-87
2023/09/13 10:17:57;;;;;;;15.43;12.83;;;20.10;23.70;;;;;;5015089;28;20202;-85
2023/09/13 10:20:24;;;;;;;13.70;12.30;;;20.00;18.00;;;;;;4992619;28;20190;-86
2023/09/13 10:22:50;;;;;;;15.30;13.80;;;20.00;17.40;;;;;;4998085;28;20187;-87
2023/09/13 10:25:18;;;;;;;14.23;12.93;;;20.20;11.60;;;;;;5018671;28;20549;-88
2023/09/13 10:27:51;;;;;;;14.77;12.20;;;20.20;5.20;;;;;;5017287;28;20627;-86
2023/09/13 10:30:21;;;;;;;14.37;13.03;;;20.10;1.90;;;;;;5017515;28;20213;-86
2023/09/13 10:32:53;;;;;;;14.83;13.53;;;20.20;1.00;;;;;;5019685;28;20166;-87
2023/09/13 10:35:19;;;;;;;14.60;13.40;;;20.10;1.00;;;;;;5019239;28;20181;-87
2023/09/13 10:37:56;;;;;;;14.60;13.20;;;20.10;1.00;;;;;;5019897;28;20521;-87
2023/09/13 10:40:24;;;;;;;14.10;12.90;;;20.20;1.00;;;;;;5018467;28;20173;-87
2023/09/13 10:42:52;;;;;;;13.67;12.23;;;20.10;1.00;;;;;;5018971;28;20195;-88
2023/09/13 10:45:18;;;;;;;13.13;11.83;;;20.30;1.00;;;;;;5021860;28;20180;-87
2023/09/13 10:47:49;;;;;;;11.67;10.47;;;20.30;1.00;;;;;;5012541;28;20238;-87
2023/09/13 10:50:16;;;;;;;11.50;10.50;;;20.30;1.00;;;;;;5008512;28;20221;-87
2023/09/13 10:52:43;;;;;;;10.30;9.23;;;20.30;1.00;;;;;;4999637;28;20718;-89
2023/09/13 10:55:12;;;;;;;10.27;9.13;;;20.30;1.00;;;;;;4998167;28;20200;-87
2023/09/13 10:57:41;;;;;;;11.83;10.43;;;20.40;1.00;;;;;;5015019;28;20185;-88
2023/09/13 11:00:10;;;;;;;11.97;10.23;;;20.50;1.00;;;;;;4999089;28;20191;-87
2023/09/13 11:02:38;;;;;;;10.00;8.87;;;20.60;1.00;;;;;;4983430;28;20204;-85
2023/09/13 11:05:04;;;;;;;11.43;9.37;;;20.60;1.00;;;;;;5002935;28;20160;-84
2023/09/13 11:07:40;;;;;;;6.93;5.63;;;20.80;1.00;;;;;;5011599;28;20168;-84
2023/09/13 11:10:12;;;;;;;11.13;7.63;;;20.60;1.00;;;;;;5007887;28;20209;-85
2023/09/13 11:12:39;;;;;;;8.80;7.90;;;20.60;1.00;;;;;;5011656;28;20151;-83
2023/09/13 11:15:19;;;;;;;9.80;8.70;;;20.40;1.00;;;;;;5010830;28;20155;-85
2023/09/13 11:17:45;;;;;;;8.53;7.63;;;20.60;1.00;;;;;;5015167;28;20211;-87
2023/09/13 11:20:57;;;;;;;9.33;8.50;;;20.60;1.00;;;;;;5017807;28;20654;-88
2023/09/13 11:23:23;;;;;;;7.93;7.20;;;20.60;1.00;;;;;;4995286;28;20184;-87
2023/09/13 11:25:55;;;;;;;9.57;8.50;;;20.70;1.00;;;;;;5012138;28;20171;-87
2023/09/13 11:28:39;;;;;;;9.77;7.37;;;20.70;1.00;;;;;;4997752;28;20184;-87
2023/09/13 11:31:45;;;;;;;8.17;7.43;;;20.80;1.00;;;;;;4997030;28;20215;-87
2023/09/13 11:34:13;;;;;;;8.13;6.47;;;20.70;1.00;;;;;;4995309;28;20202;-87
2023/09/13 11:36:55;;;;;;;6.97;6.30;;;20.60;1.00;;;;;;5022874;28;20175;-86
2023/09/13 11:39:21;;;;;;;8.47;6.43;;;20.60;1.00;;;;;;5011265;28;20183;-85
2023/09/13 11:41:47;;;;;;;6.70;5.10;;;20.80;1.00;;;;;;5012552;28;20267;-84
2023/09/13 11:44:13;;;;;;;6.30;5.00;;;20.70;1.00;;;;;;5013265;28;20167;-84
2023/09/13 11:46:39;;;;;;;6.57;4.77;;;20.70;1.00;;;;;;5014815;28;20170;-83
2023/09/13 11:49:05;;;;;;;5.23;4.10;;;20.80;1.00;;;;;;5027800;28;20170;-84
2023/09/13 11:51:32;;;;;;;5.53;3.90;;;20.80;1.00;;;;;;5011970;28;20212;-84
2023/09/13 11:54:34;;;;;;;4.70;3.10;;;20.80;1.00;;;;;;5021989;28;20226;-87
2023/09/13 11:57:03;;;;;;;3.30;1.53;;;21.00;1.00;;;;;;5010887;28;20175;-87
2023/09/13 11:59:34;;;;;;;2.97;1.47;;;21.00;1.00;;;;;;5007324;28;20188;-87
2023/09/13 12:02:00;;;;;;;1.87;1.10;;;21.20;1.00;;;;;;5006194;28;20183;-86
2023/09/13 12:04:27;;;;;;;2.87;1.10;;;21.00;1.00;;;;;;5010904;28;20178;-86
2023/09/13 12:06:57;;;;;;;2.70;1.30;;;21.10;1.00;;;;;;5019522;28;20179;-86
2023/09/13 12:09:23;;;;;;;2.43;1.00;;;21.20;1.00;;;;;;5021562;28;20170;-88
2023/09/13 12:11:53;;;;;;;3.53;0.80;;;21.40;99.90;;;;;;5019239;28;20234;-86
2023/09/13 12:14:23;;;;;;;2.80;1.00;;;21.20;99.90;;;;;;5023247;28;20183;-87
2023/09/13 12:16:50;;;;;;;3.10;0.90;;;21.20;99.90;;;;;;5009702;28;20156;-84
2023/09/13 12:19:16;;;;;;;1.43;0.90;;;21.30;99.90;;;;;;5002525;28;20203;-89
2023/09/13 12:21:45;;;;;;;1.47;0.70;;;21.20;99.90;;;;;;5009983;28;20178;-86
2023/09/13 12:24:17;;;;;;;1.20;0.73;;;21.30;99.90;;;;;;5021251;28;20227;-86
2023/09/13 12:26:43;;;;;;;2.03;0.87;;;21.50;99.90;;;;;;5028381;28;20179;-88
2023/09/13 12:29:09;;;;;;;2.07;0.93;;;21.40;99.90;;;;;;5026379;28;20219;-87
2023/09/13 12:31:41;;;;;;;2.57;1.00;;;21.30;99.90;;;;;;5030412;28;20622;-86
2023/09/13 12:34:07;;;;;;;2.33;1.07;;;21.30;99.90;;;;;;5031250;28;20177;-85
2023/09/13 12:36:33;;;;;;;1.57;0.70;;;21.30;99.90;;;;;;5030845;28;20178;-85
2023/09/13 12:42:21;;;;;;;2.30;0.87;;;21.30;99.90;;;;;;5013405;28;20171;-84
2023/09/13 12:44:47;;;;;;;1.80;0.70;;;21.20;99.90;;;;;;5023751;28;20179;-87
2023/09/13 12:47:19;;;;;;;2.40;1.00;;;21.30;99.90;;;;;;5036776;28;20204;-85
2023/09/13 12:49:46;;;;;;;2.47;0.80;;;21.40;99.90;;;;;;5034505;28;20171;-84
2023/09/13 12:52:14;;;;;;;2.10;0.80;;;21.50;99.90;;;;;;5037686;28;20179;-84
2023/09/13 12:54:44;;;;;;;2.10;1.07;;;21.50;8.80;;;;;;5037287;28;20191;-83
2023/09/13 12:57:11;;;;;;;1.83;0.83;;;21.60;99.90;;;;;;5027788;28;20254;-83
2023/09/13 12:59:42;;;;;;;2.40;1.10;;;21.80;61.90;;;;;;5024936;28;20200;-84
2023/09/13 13:02:16;;;;;;;2.70;0.80;;;21.60;1.00;;;;;;5021387;28;20199;-83
2023/09/13 13:04:42;;;;;;;1.50;0.70;;;21.70;1.00;;;;;;5023751;28;20173;-86